createdAt,value
2018-11-13T00:02:34.736Z,10.80
2018-11-13T00:06:07.977Z,10.80
2018-11-13T00:09:41.238Z,10.80
2018-11-13T00:13:14.480Z,10.70
2018-11-13T00:16:47.712Z,10.80
2018-11-13T00:20:20.988Z,10.80
2018-11-13T00:23:54.268Z,10.80
2018-11-13T00:27:27.547Z,10.90
2018-11-13T00:31:00.745Z,10.90
2018-11-13T00:34:34.000Z,10.90
2018-11-13T00:38:07.256Z,10.90
2018-11-13T00:41:40.620Z,10.90
2018-11-13T00:45:13.996Z,10.90
2018-11-13T00:48:47.180Z,10.90
2018-11-13T00:52:20.439Z,10.90
2018-11-13T00:55:53.713Z,10.90
2018-11-13T00:59:27.024Z,11.00
2018-11-13T01:03:00.578Z,11.00
2018-11-13T01:06:33.507Z,11.00
2018-11-13T01:10:08.121Z,11.00
2018-11-13T01:13:41.403Z,11.00
2018-11-13T01:17:14.694Z,11.00
2018-11-13T01:20:47.892Z,10.90
2018-11-13T01:24:21.136Z,10.90
2018-11-13T01:27:54.385Z,10.90
2018-11-13T01:31:27.640Z,10.90
2018-11-13T01:35:01.470Z,10.90
2018-11-13T01:38:34.749Z,10.90
2018-11-13T01:42:07.981Z,10.90
2018-11-13T01:45:41.225Z,10.90
2018-11-13T01:49:14.842Z,10.90
2018-11-13T01:52:48.092Z,10.90
2018-11-13T01:56:21.376Z,10.90
2018-11-13T01:59:54.601Z,10.90
2018-11-13T02:03:27.852Z,10.90
2018-11-13T02:07:01.089Z,10.90
2018-11-13T02:10:34.334Z,10.90
2018-11-13T02:14:07.737Z,10.90
2018-11-13T02:17:41.062Z,11.00
2018-11-13T02:21:14.304Z,11.00
2018-11-13T02:24:47.536Z,11.00
2018-11-13T02:28:20.761Z,11.00
2018-11-13T02:31:53.981Z,11.00
2018-11-13T02:35:27.360Z,10.90
2018-11-13T02:39:00.473Z,10.80
2018-11-13T02:42:34.370Z,10.70
2018-11-13T02:46:07.624Z,10.60
2018-11-13T02:49:40.860Z,10.50
2018-11-13T02:53:14.111Z,10.50
2018-11-13T02:56:47.331Z,10.50
2018-11-13T03:00:21.385Z,10.50
2018-11-13T03:03:54.636Z,10.50
2018-11-13T03:07:27.966Z,10.60
2018-11-13T03:11:01.208Z,10.60
2018-11-13T03:14:34.468Z,10.60
2018-11-13T03:18:07.704Z,10.60
2018-11-13T03:21:40.946Z,10.70
2018-11-13T03:25:16.427Z,10.60
2018-11-13T03:28:49.679Z,10.60
2018-11-13T03:32:22.926Z,10.60
2018-11-13T03:35:56.156Z,10.70
2018-11-13T03:39:29.405Z,10.60
2018-11-13T03:43:02.628Z,10.60
2018-11-13T03:46:35.936Z,10.60
2018-11-13T03:50:11.893Z,10.60
2018-11-13T03:53:45.151Z,10.60
2018-11-13T03:57:18.388Z,10.60
2018-11-13T04:00:51.634Z,10.60
2018-11-13T04:04:24.860Z,10.60
2018-11-13T04:07:58.097Z,10.60
2018-11-13T04:11:31.615Z,10.60
2018-11-13T04:15:05.215Z,10.50
2018-11-13T04:18:38.484Z,10.50
2018-11-13T04:22:11.724Z,10.50
2018-11-13T04:25:44.958Z,10.50
2018-11-13T04:29:18.698Z,10.50
2018-11-13T04:32:51.943Z,10.40
2018-11-13T04:36:25.242Z,10.40
2018-11-13T04:39:58.471Z,10.40
2018-11-13T04:43:31.717Z,10.40
2018-11-13T04:47:05.501Z,10.50
2018-11-13T04:50:38.736Z,10.50
2018-11-13T04:54:11.976Z,10.50
2018-11-13T04:57:46.052Z,10.50
2018-11-13T05:01:19.294Z,10.50
2018-11-13T05:04:52.530Z,10.60
2018-11-13T05:08:25.781Z,10.60
2018-11-13T05:11:59.012Z,10.60
2018-11-13T05:15:32.246Z,10.60
2018-11-13T05:19:05.578Z,10.60
2018-11-13T05:22:38.804Z,10.60
2018-11-13T05:26:12.024Z,10.60
2018-11-13T05:29:45.274Z,10.60
2018-11-13T05:33:18.507Z,10.60
2018-11-13T05:36:51.735Z,10.60
2018-11-13T05:40:25.561Z,10.60
2018-11-13T05:43:58.817Z,10.70
2018-11-13T05:47:32.079Z,10.70
2018-11-13T05:51:06.167Z,10.70
2018-11-13T05:54:39.433Z,10.70
2018-11-13T05:58:12.713Z,10.70
2018-11-13T06:01:45.949Z,10.70
2018-11-13T06:05:19.168Z,10.70
2018-11-13T06:08:52.417Z,10.70
2018-11-13T06:12:25.982Z,10.70
2018-11-13T06:15:59.222Z,10.70
2018-11-13T06:19:32.476Z,10.70
2018-11-13T06:23:05.835Z,10.80
2018-11-13T06:26:38.980Z,10.80
2018-11-13T06:30:20.376Z,10.80
2018-11-13T06:33:53.621Z,10.80
2018-11-13T06:37:26.867Z,10.80
2018-11-13T06:41:00.106Z,10.80
2018-11-13T06:44:33.328Z,10.90
2018-11-13T06:48:06.581Z,10.90
2018-11-13T06:51:39.841Z,10.90
2018-11-13T06:55:20.141Z,10.90
2018-11-13T06:58:53.382Z,11.00
2018-11-13T07:02:26.636Z,11.00
2018-11-13T07:05:59.882Z,11.00
2018-11-13T07:09:33.125Z,11.00
2018-11-13T07:13:06.377Z,11.00
2018-11-13T07:16:39.644Z,11.10
2018-11-13T07:20:12.953Z,11.10
2018-11-13T07:23:46.199Z,11.10
2018-11-13T07:27:19.491Z,11.10
2018-11-13T07:30:52.686Z,11.10
2018-11-13T07:34:26.068Z,11.10
2018-11-13T07:38:00.169Z,11.10
2018-11-13T07:41:33.412Z,11.10
2018-11-13T07:45:09.181Z,11.10
2018-11-13T07:48:42.412Z,11.20
2018-11-13T07:52:15.661Z,11.30
2018-11-13T07:55:48.894Z,11.30
2018-11-13T07:59:22.128Z,11.30
2018-11-13T08:02:56.244Z,11.30
2018-11-13T08:06:29.555Z,11.30
2018-11-13T08:10:02.768Z,11.30
2018-11-13T08:13:36.072Z,11.30
2018-11-13T08:17:09.257Z,11.30
2018-11-13T08:20:42.500Z,11.40
2018-11-13T08:24:15.756Z,11.40
2018-11-13T08:27:48.995Z,11.40
2018-11-13T08:31:22.289Z,11.40
2018-11-13T08:34:55.575Z,11.50
2018-11-13T08:38:28.767Z,11.50
2018-11-13T08:42:02.013Z,11.50
2018-11-13T08:45:35.244Z,11.50
2018-11-13T08:49:08.480Z,11.60
2018-11-13T08:52:42.616Z,11.60
2018-11-13T08:56:15.863Z,11.70
2018-11-13T08:59:49.105Z,11.80
2018-11-13T09:03:22.328Z,11.90
2018-11-13T09:06:55.577Z,12.00
2018-11-13T09:10:28.843Z,12.00
2018-11-13T09:14:02.091Z,12.10
2018-11-13T09:17:35.346Z,12.10
2018-11-13T09:21:08.588Z,12.20
2018-11-13T09:24:41.832Z,12.30
2018-11-13T09:28:15.095Z,12.40
2018-11-13T09:31:48.392Z,12.40
2018-11-13T09:35:21.601Z,12.50
2018-11-13T09:38:54.852Z,12.50
2018-11-13T09:42:28.089Z,12.60
2018-11-13T09:46:01.415Z,12.60
2018-11-13T09:49:34.591Z,12.70
2018-11-13T09:53:07.840Z,12.80
2018-11-13T09:56:41.101Z,12.80
2018-11-13T10:00:18.742Z,12.90
2018-11-13T10:03:52.561Z,13.00
2018-11-13T10:07:25.252Z,13.10
2018-11-13T10:10:58.489Z,13.10
2018-11-13T10:14:31.733Z,13.10
2018-11-13T10:18:05.199Z,13.20
2018-11-13T10:21:38.298Z,13.20
2018-11-13T10:25:12.080Z,13.30
2018-11-13T10:28:45.335Z,13.30
2018-11-13T10:32:18.568Z,13.40
2018-11-13T10:35:51.813Z,13.40
2018-11-13T10:39:25.065Z,13.50
2018-11-13T10:42:58.316Z,13.50
2018-11-13T10:46:31.598Z,13.60
2018-11-13T10:50:07.419Z,13.70
2018-11-13T10:53:40.671Z,13.80
2018-11-13T10:57:13.899Z,13.80
2018-11-13T11:00:52.468Z,13.90
2018-11-13T11:04:31.195Z,13.90
2018-11-13T11:08:04.412Z,13.90
2018-11-13T11:11:38.185Z,14.00
2018-11-13T11:15:11.465Z,14.00
2018-11-13T11:18:44.765Z,14.10
2018-11-13T11:22:18.752Z,14.00
2018-11-13T11:25:51.984Z,14.00
2018-11-13T11:29:25.224Z,14.00
2018-11-13T11:32:58.460Z,14.00
2018-11-13T11:36:31.705Z,14.00
2018-11-13T11:40:04.992Z,14.00
2018-11-13T11:43:38.254Z,14.00
2018-11-13T11:47:11.522Z,14.00
2018-11-13T11:50:44.779Z,13.90
2018-11-13T11:54:18.037Z,14.00
2018-11-13T11:57:51.268Z,14.00
2018-11-13T12:01:24.502Z,14.10
2018-11-13T12:04:57.735Z,14.10
2018-11-13T12:08:30.969Z,14.10
2018-11-13T12:12:04.275Z,14.10
2018-11-13T12:15:37.461Z,14.10
2018-11-13T12:19:10.700Z,14.00
2018-11-13T12:22:44.013Z,13.90
2018-11-13T12:26:17.253Z,13.90
2018-11-13T12:29:50.488Z,13.80
2018-11-13T12:33:23.768Z,13.80
2018-11-13T12:36:56.971Z,13.70
2018-11-13T12:40:30.212Z,13.70
2018-11-13T12:44:03.449Z,13.70
2018-11-13T12:47:36.687Z,13.70
2018-11-13T12:51:14.160Z,13.60
2018-11-13T12:54:47.701Z,13.60
2018-11-13T12:58:20.940Z,13.50
2018-11-13T13:01:54.261Z,13.40
2018-11-13T13:05:27.490Z,13.30
2018-11-13T13:09:00.717Z,13.30
2018-11-13T13:12:33.955Z,13.20
2018-11-13T13:16:07.242Z,13.10
2018-11-13T13:19:40.473Z,13.10
2018-11-13T13:23:13.701Z,13.10
2018-11-13T13:26:46.936Z,13.20
2018-11-13T13:30:21.541Z,13.20
2018-11-13T13:33:54.785Z,13.20
2018-11-13T13:37:28.148Z,13.10
2018-11-13T13:41:02.369Z,13.10
2018-11-13T13:44:35.613Z,13.00
2018-11-13T13:48:08.839Z,13.10
2018-11-13T13:51:42.092Z,13.00
2018-11-13T13:55:15.377Z,13.00
2018-11-13T13:58:48.600Z,13.00
2018-11-13T14:02:22.237Z,13.00
2018-11-13T14:05:55.494Z,13.10
2018-11-13T14:09:28.709Z,13.10
2018-11-13T14:13:01.940Z,13.10
2018-11-13T14:16:35.172Z,13.10
2018-11-13T14:20:12.310Z,13.10
2018-11-13T14:23:45.553Z,13.10
2018-11-13T14:27:18.965Z,13.10
2018-11-13T14:30:52.202Z,13.10
2018-11-13T14:34:25.437Z,13.00
2018-11-13T14:37:58.869Z,12.90
2018-11-13T14:41:32.122Z,12.90
2018-11-13T14:45:06.077Z,12.90
2018-11-13T14:48:39.315Z,12.90
2018-11-13T14:52:12.532Z,12.90
2018-11-13T14:55:46.406Z,12.90
2018-11-13T14:59:19.652Z,12.90
2018-11-13T15:02:53.298Z,12.90
2018-11-13T15:06:26.534Z,12.80
2018-11-13T15:09:59.761Z,12.60
2018-11-13T15:13:32.995Z,12.60
2018-11-13T15:17:06.457Z,12.40
2018-11-13T15:20:40.037Z,12.40
2018-11-13T15:24:13.321Z,12.20
2018-11-13T15:27:46.528Z,12.20
2018-11-13T15:31:19.767Z,12.10
2018-11-13T15:34:53.032Z,12.00
2018-11-13T15:38:26.276Z,11.90
2018-11-13T15:41:59.515Z,11.80
2018-11-13T15:45:32.760Z,11.80
2018-11-13T15:49:05.993Z,11.70
2018-11-13T15:52:39.234Z,11.70
2018-11-13T15:56:12.473Z,11.60
2018-11-13T15:59:45.719Z,11.60
2018-11-13T16:03:36.172Z,11.50
2018-11-13T16:07:09.384Z,11.50
2018-11-13T16:10:42.618Z,11.50
2018-11-13T16:14:15.861Z,11.50
2018-11-13T16:17:49.730Z,11.40
2018-11-13T16:21:23.014Z,11.40
2018-11-13T16:24:56.194Z,11.30
2018-11-13T16:28:29.447Z,11.30
2018-11-13T16:32:02.676Z,11.30
2018-11-13T16:35:35.969Z,11.20
2018-11-13T16:39:12.613Z,11.20
2018-11-13T16:42:45.860Z,11.10
2018-11-13T16:46:19.098Z,11.10
2018-11-13T16:49:52.328Z,11.10
2018-11-13T16:53:25.560Z,11.00
2018-11-13T16:56:59.611Z,11.00
2018-11-13T17:00:32.850Z,11.00
2018-11-13T17:04:06.802Z,10.90
2018-11-13T17:07:40.354Z,10.90
2018-11-13T17:11:13.636Z,10.80
2018-11-13T17:14:46.804Z,10.80
2018-11-13T17:18:20.034Z,10.80
2018-11-13T17:21:53.280Z,10.70
2018-11-13T17:25:36.449Z,10.70
2018-11-13T17:29:09.726Z,10.60
2018-11-13T17:32:43.501Z,10.60
2018-11-13T17:36:16.738Z,10.60
2018-11-13T17:39:49.960Z,10.60
2018-11-13T17:43:23.227Z,10.50
2018-11-13T17:46:56.480Z,10.50
2018-11-13T17:50:32.974Z,10.50
2018-11-13T17:54:06.222Z,10.50
2018-11-13T17:57:39.538Z,10.50
2018-11-13T18:01:12.803Z,10.50
2018-11-13T18:04:46.016Z,10.50
2018-11-13T18:08:19.242Z,10.50
2018-11-13T18:11:52.471Z,10.40
2018-11-13T18:15:26.896Z,10.30
2018-11-13T18:19:00.127Z,10.30
2018-11-13T18:22:33.361Z,10.30
2018-11-13T18:26:06.628Z,10.20
2018-11-13T18:29:39.877Z,10.20
2018-11-13T18:33:13.118Z,10.20
2018-11-13T18:36:46.381Z,10.10
2018-11-13T18:40:20.502Z,10.10
2018-11-13T18:43:53.725Z,10.10
2018-11-13T18:47:26.974Z,10.10
2018-11-13T18:51:00.221Z,10.00
2018-11-13T18:54:33.465Z,10.00
2018-11-13T18:58:06.720Z,10.00
2018-11-13T19:01:39.986Z,10.00
2018-11-13T19:05:13.948Z,9.90
2018-11-13T19:08:47.088Z,9.90
2018-11-13T19:12:20.349Z,9.90
2018-11-13T19:15:57.408Z,9.80
2018-11-13T19:19:30.634Z,9.80
2018-11-13T19:23:03.879Z,9.80
2018-11-13T19:26:37.117Z,9.80
2018-11-13T19:30:11.344Z,9.70
2018-11-13T19:33:44.480Z,9.70
2018-11-13T19:37:17.783Z,9.70
2018-11-13T19:40:50.976Z,9.70
2018-11-13T19:44:24.278Z,9.70
2018-11-13T19:47:57.510Z,9.70
2018-11-13T19:51:30.800Z,9.70
2018-11-13T19:55:04.326Z,9.70
2018-11-13T19:58:37.562Z,9.70
2018-11-13T20:02:10.776Z,9.60
2018-11-13T20:05:44.006Z,9.60
2018-11-13T20:09:17.231Z,9.60
2018-11-13T20:12:51.283Z,9.60
2018-11-13T20:16:24.492Z,9.60
2018-11-13T20:19:57.723Z,9.60
2018-11-13T20:23:31.008Z,9.60
2018-11-13T20:27:04.265Z,9.50
2018-11-13T20:30:38.912Z,9.50
2018-11-13T20:34:12.120Z,9.50
2018-11-13T20:37:46.516Z,9.50
2018-11-13T20:41:19.758Z,9.50
2018-11-13T20:44:53.030Z,9.50
2018-11-13T20:48:26.266Z,9.50
2018-11-13T20:51:59.499Z,9.40
2018-11-13T20:55:32.798Z,9.40
2018-11-13T20:59:06.036Z,9.40
2018-11-13T21:02:39.281Z,9.40
2018-11-13T21:06:12.521Z,9.40
2018-11-13T21:09:45.778Z,9.30
2018-11-13T21:13:19.002Z,9.30
2018-11-13T21:16:52.363Z,9.20
2018-11-13T21:20:25.753Z,9.20
2018-11-13T21:23:58.754Z,9.10
2018-11-13T21:27:32.638Z,9.10
2018-11-13T21:31:05.874Z,9.10
2018-11-13T21:34:39.113Z,9.10
2018-11-13T21:38:12.337Z,9.10
2018-11-13T21:41:45.560Z,9.10
2018-11-13T21:45:19.752Z,9.10
2018-11-13T21:48:53.016Z,9.10
2018-11-13T21:52:26.235Z,9.10
2018-11-13T21:55:59.457Z,9.00
2018-11-13T21:59:32.700Z,9.00
2018-11-13T22:03:07.368Z,9.00
2018-11-13T22:06:40.593Z,9.00
2018-11-13T22:10:13.812Z,9.00
2018-11-13T22:13:47.036Z,9.00
2018-11-13T22:17:20.270Z,8.90
2018-11-13T22:20:53.501Z,8.90
2018-11-13T22:24:26.734Z,8.90
2018-11-13T22:28:00.137Z,8.90
2018-11-13T22:31:33.304Z,8.90
2018-11-13T22:35:07.998Z,8.90
2018-11-13T22:38:41.277Z,8.90
2018-11-13T22:42:14.459Z,8.80
2018-11-13T22:45:47.709Z,8.80
2018-11-13T22:49:20.952Z,8.80
2018-11-13T22:52:54.503Z,8.80
2018-11-13T22:56:27.745Z,8.70
2018-11-13T23:00:00.959Z,8.70
2018-11-13T23:03:34.207Z,8.70
2018-11-13T23:07:07.430Z,8.70
2018-11-13T23:10:40.660Z,8.60
2018-11-13T23:14:13.902Z,8.60
2018-11-13T23:17:47.123Z,8.60
2018-11-13T23:21:20.358Z,8.50
2018-11-13T23:24:53.580Z,8.50
2018-11-13T23:28:26.805Z,8.50
2018-11-13T23:32:00.023Z,8.50
2018-11-13T23:35:33.252Z,8.50
2018-11-13T23:39:07.417Z,8.50
2018-11-13T23:42:40.812Z,8.50
2018-11-13T23:46:14.052Z,8.50
2018-11-13T23:49:47.279Z,8.40
2018-11-13T23:53:20.509Z,8.40
2018-11-13T23:56:53.727Z,8.50
